Station info - map view · info · telemetry · weather · raw · status · beacons · messages · bulletins · browse · moving · my account
Callsign, ship name or locator: Clear       
It is possible to search using wildcards (*?) after a prefix. Example: OH*
APRS station N175PT - show graphs
Map loading...
Comment: KG6VN COZY MK IV
Mic-E message: En route
Last status: MT8000FA v1.0
Location: 37°41.49' N 121°48.86' W - locator CM97CQ25GX - show map - static map
2.6 miles West bearing 285° from Livermore, Alameda County, California, United States [?]
3.9 miles Northeast bearing 59° from Pleasanton, Alameda County, California, United States
24.7 miles North bearing 10° from San Jose, Santa Clara County, California, United States
33.5 miles East bearing 100° from San Francisco, San Francisco County, California, United States
Last position: 2018-11-04 13:12:33 EST (8d 4h33m ago)
2018-11-04 10:12:33 PST local time at Livermore, United States [?]
Altitude: 262 ft
Course: 21°
Last telemetry: 2015-02-14 15:17:32 EST (1367d 2h28m ago) – show telemetry
Ch 1: 477, Ch 2: 636, Ch 3: 0, Ch 4: 0, Ch 5: 0
 1     2     3     4     5     6     7     8 
Last path: N175PT>SW4QTY via WIDE1-1,WIDE2-1,qAR,W6SRR-3 (good)
Positions stored: 23089
Stations near current position of N175PT - show more
callsign distance last heard - EST      callsign distance last heard - EST
N58JB28.0 yards 182°2018-10-20 21:42:52 AF6QO-938.7 yards 302°2018-11-07 19:17:33
N429RV0.4 miles 66°2018-11-09 11:56:50 N137LC0.8 miles 81°2018-11-05 17:20:23
N7723V2.0 miles 304°2018-10-21 23:38:06 K3GX-32.2 miles 87°2018-10-24 00:50:58
WA6SYE2.3 miles 160°2018-11-12 17:05:26 KA7QQV-32.6 miles 74°2018-11-12 17:45:41
WM7P B2.6 miles 105°2018-11-04 03:17:37 WM7P-B2.6 miles 105°2018-11-04 03:17:47
WM7P-R2.6 miles 105°2018-11-03 15:21:58 WM7P2.6 miles 105°2018-11-03 15:39:26
AF6QO-72.7 miles 145°2018-11-11 21:44:36 W6MQI-92.9 miles 145°2018-11-01 21:28:37
AD6DM-92.9 miles 170°2018-11-03 20:05:12 KE6AYK-N3.0 miles 294°2018-10-28 02:57:50
KE6AYK3.0 miles 294°2018-11-12 17:03:58 K6DUX3.3 miles 265°2018-11-12 17:12:44
KM6WSH3.8 miles 263°2018-11-11 04:46:37 KK6ZL-24.1 miles 259°2018-11-12 17:42:51
Stations which heard N175PT directly on radio –
callsign pkts first heard - EST last heard longest (tx => rx) longest at - EST
W6BXN-3 6 2018-11-04 11:07:22 2018-11-04 11:58:24 CM97EU > CM97XM 89.3 miles 104° 2018-11-04 11:26:28
WR6ABD 5 2018-11-04 10:47:59 2018-11-04 12:29:13 CM97DR > CM97BC 43.9 miles 192° 2018-11-04 10:48:58
W6CX-3 25 2018-11-04 10:58:23 2018-11-04 12:30:48 CM97GP > CM97BV 30.1 miles 302° 2018-11-04 11:00:09
RANCHO 3 2018-11-04 11:30:51 2018-11-04 12:03:14 CM97EU > CM98QR 80.8 miles 41° 2018-11-04 12:03:14
K6FGA-1 16 2018-11-04 10:59:08 2018-11-04 12:25:48 CM97CQ > CM99MF 116.6 miles 21° 2018-11-04 12:25:48
WA6ODP-3 36 2018-11-04 10:39:40 2018-11-04 12:33:47 CM97GU > CM97AP 27.1 miles 244° 2018-11-04 10:53:50
ECHO 1 2018-11-04 11:19:33 2018-11-04 11:19:33 CM97FU > IO74AN 4996.2 miles 33° 2018-11-04 11:19:33
W6YX-5 4 2018-11-04 10:55:29 2018-11-04 12:13:28 CM97FT > CM87WJ 43.1 miles 230° 2018-11-04 11:52:40
WB6TMS-3 2 2018-11-04 12:22:44 2018-11-04 12:28:27 CM97BQ > CM87LX 67.5 miles 289° 2018-11-04 12:28:27
K7FED-10 9 2018-11-04 11:00:14 2018-11-04 12:06:11 CM97EU > CM97GR 15.5 miles 128° 2018-11-04 11:57:49
N6ZX-3 8 2018-11-04 10:45:46 2018-11-04 12:30:40 CM97FV > CM87UK 52.8 miles 234° 2018-11-04 11:20:25
WA6TOW-2 10 2018-11-04 10:46:59 2018-11-04 12:10:50 CM97FV > CM87SN 56.9 miles 248° 2018-11-04 11:19:54
K7FED-1 45 2018-11-04 10:48:25 2018-11-04 12:12:47 CM97EU > CM97FP 15.4 miles 157° 2018-11-04 11:27:17
DANAHR 8 2018-11-04 11:05:13 2018-11-04 12:07:42 CM97GQ > CM98PR 84.5 miles 29° 2018-11-04 11:05:13
K6SJC-1 21 2018-11-04 11:04:30 2018-11-04 12:06:46 CM97EU > CM97JV 22.1 miles 81° 2018-11-04 11:26:41
VACA 1 2018-11-04 12:16:53 2018-11-04 12:16:53 CM97FT > CM88WJ 50.8 miles 323° 2018-11-04 12:16:53
ALDER 1 2018-11-04 11:32:58 2018-11-04 11:32:58 CM97ET > CM98TR 93.8 miles 47° 2018-11-04 11:32:58
W6SCR-3 2 2018-11-04 11:06:41 2018-11-04 11:32:59 CM97GQ > CM99EW 154.4 miles 356° 2018-11-04 11:06:41
W6SRR-3 63 2018-11-04 10:33:49 2018-11-04 13:12:33 CM97FV > CM97AO 28.3 miles 231° 2018-11-04 11:19:52
K6YIL-7 1 2018-11-04 10:52:48 2018-11-04 10:52:48 CM97GT > CM88NI 84.2 miles 297° 2018-11-04 10:52:48
WARD 9 2018-11-04 11:04:25 2018-11-04 12:31:03 CM97CQ > CM99UD 130.1 miles 38° 2018-11-04 12:31:03
KO6KL-10 1 2018-11-04 12:06:04 2018-11-04 12:06:04 CM97EU > CM97KR 31.5 miles 107° 2018-11-04 12:06:04
GAPGTE 2 2018-11-04 11:35:03 2018-11-04 11:50:07 CM97EU > CM98GM 47.7 miles 10° 2018-11-04 11:50:07
KO6KL-1 22 2018-11-04 10:53:43 2018-11-04 12:08:15 CM97EU > CM97KR 31.8 miles 107° 2018-11-04 11:26:20
KF6FPU-15 1 2018-11-04 11:07:32 2018-11-04 11:07:32 CM97GQ > CM97JT 16.3 miles 56° 2018-11-04 11:07:32
W6PW-10 2 2018-11-04 10:45:37 2018-11-04 12:30:47 CM97CQ > CM87SS 38.2 miles 278° 2018-11-04 12:30:47

Only position packets which were originated by the station are shown here. The range statistics show some extra long hops, because some digipeaters do not correctly add themselves to the digipeater path. Please check the raw packets.
About this site
This page shows real-time information collected from the Automatic Position Reporting System Internet network (APRS-IS). APRS is used by amateur (ham) radio operators to transmit real-time position information, weather data, telemetry and messages over the radio. A vehicle equipped with a GPS receiver, a VHF transmitter or HF transceiver and a small computer device called a tracker transmits it's location, speed and course in a small data packet, which is then received by a nearby iGate receiving site which forwards the packet on the Internet. Systems connected to the Internet can send information on the APRS-IS without a radio transmitter, or collect and display information transmitted anywhere in the world.
FAQ · Blog · Discussion group · Linking to aprs.fi · AIS sites · Service status · Database statistics · Advertising on aprs.fi · Technical details · API · Change log · Planned changes · Credits and thanks · Terms Of Service · iPhone/iPad APRS